Time;durP1;ratioP1;P1;durP2;ratioP2;P2;SDS_P1;SDS_P2;PMS_P1;PMS_P2;Temp;Humidity;BMP_temperature;BMP_pressure;BME280_temperature;BME280_humidity;BME280_pressure;Samples;Min_cycle;Max_cycle;Signal;HPM_P1;HPM_P2
2022/11/29 00:01:28;;;;;;;43.30;22.60;;;4.80;99.90;;;;;;6177673;23;20425;-44
2022/11/29 00:03:54;;;;;;;44.47;23.70;;;4.80;99.90;;;;;;6184952;23;20366;-46
2022/11/29 00:06:22;;;;;;;45.07;22.27;;;4.80;99.90;;;;;;6184033;23;20895;-44
2022/11/29 00:08:48;;;;;;;48.60;24.40;;;4.70;99.90;;;;;;6184294;23;20790;-44
2022/11/29 00:12:10;;;;;;;46.67;23.13;;;4.70;99.90;;;;;;6184361;23;20359;-44
2022/11/29 00:14:03;;;;;;;49.47;24.37;;;4.70;99.90;;;;;;6184354;23;20473;-44
2022/11/29 00:16:29;;;;;;;45.80;22.63;;;4.80;99.90;;;;;;6183985;23;20363;-44
2022/11/29 00:18:55;;;;;;;47.73;23.93;;;4.70;99.90;;;;;;6177470;23;20379;-44
2022/11/29 00:21:20;;;;;;;51.93;25.87;;;4.70;99.90;;;;;;6183814;23;20155;-44
2022/11/29 00:23:46;;;;;;;54.77;24.60;;;4.70;99.90;;;;;;6183723;23;20798;-45
2022/11/29 00:26:11;;;;;;;52.77;23.97;;;4.70;99.90;;;;;;6183294;23;20229;-45
2022/11/29 00:28:37;;;;;;;50.10;26.17;;;4.70;99.90;;;;;;6183542;23;20161;-44
2022/11/29 00:31:17;;;;;;;54.10;25.43;;;4.70;99.90;;;;;;6183467;23;20140;-45
2022/11/29 00:33:43;;;;;;;55.67;26.13;;;4.60;99.90;;;;;;6183237;23;20142;-44
2022/11/29 00:36:09;;;;;;;53.40;26.10;;;4.70;99.90;;;;;;6184168;23;20758;-47
2022/11/29 00:38:34;;;;;;;54.43;26.90;;;4.70;99.90;;;;;;6178302;23;20286;-47
2022/11/29 00:41:00;;;;;;;54.13;24.90;;;4.70;99.90;;;;;;6183528;23;20410;-46
2022/11/29 00:43:25;;;;;;;57.87;27.10;;;4.70;99.90;;;;;;6183722;23;20621;-47
2022/11/29 00:45:51;;;;;;;52.47;25.60;;;4.60;99.90;;;;;;6183334;23;20608;-47
2022/11/29 00:48:17;;;;;;;54.77;26.73;;;4.60;99.90;;;;;;6184108;23;20926;-47
2022/11/29 00:50:43;;;;;;;52.33;26.20;;;4.60;99.90;;;;;;6157861;23;20159;-47
2022/11/29 00:53:08;;;;;;;53.03;25.60;;;4.60;99.90;;;;;;6182451;23;20386;-47
2022/11/29 00:55:34;;;;;;;55.90;27.10;;;4.60;99.90;;;;;;6177097;23;20223;-47
2022/11/29 00:57:59;;;;;;;61.33;27.30;;;4.60;99.90;;;;;;6183465;23;20162;-47
2022/11/29 01:00:25;;;;;;;51.90;26.97;;;4.60;99.90;;;;;;6183489;23;20147;-44
2022/11/29 01:02:51;;;;;;;53.87;27.07;;;4.60;99.90;;;;;;6183743;23;20158;-46
2022/11/29 01:05:17;;;;;;;52.67;26.57;;;4.70;99.90;;;;;;6183292;23;20758;-47
2022/11/29 01:07:42;;;;;;;61.40;27.20;;;4.60;99.90;;;;;;6183481;23;20274;-46
2022/11/29 01:10:08;;;;;;;66.13;32.57;;;4.60;99.90;;;;;;6183549;23;20139;-47
2022/11/29 01:12:35;;;;;;;57.97;27.03;;;4.60;99.90;;;;;;6183426;23;20175;-46
2022/11/29 01:15:03;;;;;;;57.03;27.87;;;4.70;99.90;;;;;;6183516;23;20390;-47
2022/11/29 01:17:28;;;;;;;58.70;27.17;;;4.60;99.90;;;;;;6183692;23;20370;-47
2022/11/29 01:19:54;;;;;;;58.97;30.07;;;4.60;99.90;;;;;;6183201;23;20465;-47
2022/11/29 01:22:20;;;;;;;58.43;28.07;;;4.60;99.90;;;;;;6182546;23;20562;-47
2022/11/29 01:24:45;;;;;;;56.03;28.50;;;4.60;99.90;;;;;;6182032;23;20240;-46
2022/11/29 01:27:11;;;;;;;51.40;27.17;;;4.60;99.90;;;;;;6180268;23;20167;-46
2022/11/29 01:29:37;;;;;;;58.70;28.30;;;4.60;99.90;;;;;;6182689;23;20174;-47
2022/11/29 01:32:03;;;;;;;58.70;26.57;;;4.60;99.90;;;;;;6183475;23;20155;-55
2022/11/29 01:34:29;;;;;;;56.60;27.73;;;4.50;99.90;;;;;;6183440;23;21146;-47
2022/11/29 01:36:54;;;;;;;62.83;28.60;;;4.60;99.90;;;;;;6183206;23;20436;-47
2022/11/29 01:39:20;;;;;;;58.27;27.83;;;4.60;99.90;;;;;;6182408;23;20198;-47
2022/11/29 01:41:45;;;;;;;58.50;30.00;;;4.50;99.90;;;;;;6183026;23;20160;-48
2022/11/29 01:44:11;;;;;;;61.70;28.77;;;4.50;99.90;;;;;;6182794;23;20465;-46
2022/11/29 01:46:42;;;;;;;62.00;28.97;;;4.50;99.90;;;;;;6183405;23;20152;-47
2022/11/29 01:49:17;;;;;;;57.30;29.40;;;4.50;99.90;;;;;;6183204;23;20151;-47
2022/11/29 01:51:58;;;;;;;63.03;30.80;;;4.50;99.90;;;;;;6176884;23;20362;-46
2022/11/29 01:54:24;;;;;;;66.30;31.37;;;4.50;99.90;;;;;;6183048;23;20371;-47
2022/11/29 01:56:51;;;;;;;65.80;30.27;;;4.50;99.90;;;;;;6183306;23;20382;-47
2022/11/29 01:59:23;;;;;;;67.67;31.30;;;4.50;99.90;;;;;;6182917;23;20367;-47
2022/11/29 02:01:50;;;;;;;67.77;30.87;;;4.50;99.90;;;;;;6183048;23;20374;-46
2022/11/29 02:04:17;;;;;;;59.30;30.30;;;4.50;99.90;;;;;;6182980;23;20703;-46
2022/11/29 02:06:43;;;;;;;62.07;28.33;;;4.50;99.90;;;;;;6182588;23;20477;-46
2022/11/29 02:09:20;;;;;;;66.97;30.07;;;4.50;99.90;;;;;;6183694;23;20390;-47
2022/11/29 02:12:06;;;;;;;60.97;29.30;;;4.40;99.90;;;;;;6176226;23;20744;-47
2022/11/29 02:15:01;;;;;;;65.70;30.60;;;4.50;99.90;;;;;;6181407;23;20676;-46
2022/11/29 02:17:41;;;;;;;69.83;32.27;;;4.40;99.90;;;;;;6182531;23;20797;-47
2022/11/29 02:20:40;;;;;;;62.90;30.53;;;4.50;99.90;;;;;;6180147;23;20372;-47
2022/11/29 02:23:15;;;;;;;63.90;28.87;;;4.50;99.90;;;;;;6178695;23;20693;-46
2022/11/29 02:26:12;;;;;;;66.60;29.57;;;4.50;99.90;;;;;;6179934;23;20918;-46
2022/11/29 02:28:47;;;;;;;70.70;31.47;;;4.40;99.90;;;;;;6181696;23;20369;-46
2022/11/29 02:31:43;;;;;;;66.90;30.63;;;4.40;99.90;;;;;;6182714;23;20433;-47
2022/11/29 02:34:15;;;;;;;62.40;30.27;;;4.30;99.90;;;;;;6182740;23;20453;-46
2022/11/29 02:37:15;;;;;;;68.70;31.20;;;4.30;99.90;;;;;;6183010;23;20374;-47
2022/11/29 02:40:11;;;;;;;66.40;29.80;;;4.30;99.90;;;;;;6166951;23;20442;-45
2022/11/29 02:43:08;;;;;;;62.50;32.30;;;4.30;99.90;;;;;;6182801;23;20378;-46
2022/11/29 02:45:58;;;;;;;67.63;30.70;;;4.40;99.90;;;;;;6174672;23;20882;-47
2022/11/29 02:48:45;;;;;;;60.80;29.07;;;4.40;99.90;;;;;;6182953;23;20381;-47
2022/11/29 02:51:42;;;;;;;69.50;29.60;;;4.30;99.90;;;;;;6185164;23;20394;-46
2022/11/29 02:54:22;;;;;;;71.73;30.83;;;4.40;99.90;;;;;;6164642;23;20391;-46
2022/11/29 02:57:00;;;;;;;65.90;29.97;;;4.40;99.90;;;;;;6183196;23;20392;-46
2022/11/29 02:59:51;;;;;;;66.07;31.30;;;4.40;99.90;;;;;;6178190;23;20864;-46
2022/11/29 03:02:37;;;;;;;63.63;29.97;;;4.50;99.90;;;;;;6184450;23;20711;-47
2022/11/29 03:05:12;;;;;;;63.53;29.60;;;4.40;99.90;;;;;;6184335;23;20422;-47
2022/11/29 03:08:02;;;;;;;70.30;29.93;;;4.40;99.90;;;;;;6183315;23;20394;-47
2022/11/29 03:10:32;;;;;;;66.40;31.77;;;4.40;99.90;;;;;;6184902;23;20370;-46
2022/11/29 03:13:00;;;;;;;64.40;30.97;;;4.30;92.90;;;;;;6184336;23;20397;-47
2022/11/29 03:15:31;;;;;;;60.57;28.47;;;4.30;99.90;;;;;;6177447;23;20371;-44
2022/11/29 03:18:19;;;;;;;66.53;31.73;;;4.30;99.90;;;;;;6184309;23;20383;-47
2022/11/29 03:21:25;;;;;;;70.83;29.80;;;4.30;99.90;;;;;;6184052;23;20606;-46
2022/11/29 03:23:57;;;;;;;66.13;30.53;;;4.40;99.90;;;;;;6184013;23;20813;-47
2022/11/29 03:26:34;;;;;;;65.47;31.00;;;4.30;99.90;;;;;;6184253;23;20411;-46
2022/11/29 03:29:29;;;;;;;68.03;31.73;;;4.30;99.90;;;;;;6184496;23;20378;-46
2022/11/29 03:32:16;;;;;;;66.37;30.53;;;4.30;99.90;;;;;;6142320;23;20390;-47
2022/11/29 03:35:09;;;;;;;65.10;30.93;;;4.30;99.90;;;;;;6178532;23;20664;-47
2022/11/29 03:37:50;;;;;;;74.60;32.73;;;4.30;99.90;;;;;;6184112;23;20394;-46
2022/11/29 03:40:21;;;;;;;66.73;30.97;;;4.30;99.90;;;;;;6184548;23;20452;-46
2022/11/29 03:43:00;;;;;;;66.20;31.10;;;4.40;99.90;;;;;;6184836;23;20383;-47
2022/11/29 03:45:42;;;;;;;71.33;30.93;;;4.40;99.90;;;;;;6183930;23;20417;-46
2022/11/29 03:48:26;;;;;;;72.70;32.20;;;4.40;99.90;;;;;;6184713;23;20382;-45
2022/11/29 03:51:20;;;;;;;69.10;30.50;;;4.30;86.20;;;;;;6178081;23;20436;-47
2022/11/29 03:54:06;;;;;;;74.63;32.13;;;4.30;74.20;;;;;;6184225;23;20371;-47
2022/11/29 03:56:35;;;;;;;79.57;32.17;;;4.30;60.30;;;;;;6183974;23;20473;-47
2022/11/29 03:59:07;;;;;;;67.80;30.90;;;4.30;52.50;;;;;;6183909;23;20381;-47
2022/11/29 04:02:01;;;;;;;77.40;32.00;;;4.30;66.10;;;;;;6179767;23;20380;-46
2022/11/29 04:05:09;;;;;;;83.97;36.13;;;4.30;74.60;;;;;;6183286;23;20406;-46
2022/11/29 04:08:13;;;;;;;78.43;32.77;;;4.30;82.00;;;;;;6183865;23;20401;-46
2022/11/29 04:11:03;;;;;;;68.67;31.97;;;4.30;72.90;;;;;;6183251;23;20698;-46
2022/11/29 04:14:08;;;;;;;65.07;30.40;;;4.30;61.10;;;;;;6183381;23;20445;-46
2022/11/29 04:16:53;;;;;;;70.50;32.37;;;4.30;80.70;;;;;;6183155;23;20400;-47
2022/11/29 04:19:48;;;;;;;73.70;33.30;;;4.20;99.90;;;;;;6183929;23;20391;-46
2022/11/29 04:22:53;;;;;;;68.70;32.43;;;4.30;99.90;;;;;;6176963;23;20386;-46
2022/11/29 04:25:38;;;;;;;75.27;33.73;;;4.20;85.20;;;;;;6183521;23;21143;-46
2022/11/29 04:28:10;;;;;;;74.97;33.33;;;4.20;91.60;;;;;;6183661;23;20381;-47
2022/11/29 04:31:00;;;;;;;73.40;32.70;;;4.30;99.90;;;;;;6182697;23;20388;-46
2022/11/29 04:33:43;;;;;;;73.80;33.20;;;4.30;99.90;;;;;;6184034;23;20371;-46
2022/11/29 04:36:35;;;;;;;67.03;31.43;;;4.30;94.00;;;;;;6183310;23;20421;-46
2022/11/29 04:39:07;;;;;;;67.40;32.23;;;4.30;58.40;;;;;;6182756;23;20748;-47
2022/11/29 04:41:54;;;;;;;77.37;32.77;;;4.30;58.10;;;;;;6179615;23;20375;-46
2022/11/29 04:44:25;;;;;;;71.13;33.50;;;4.30;54.80;;;;;;6183380;23;20920;-46
2022/11/29 04:46:59;;;;;;;72.97;32.90;;;4.30;48.00;;;;;;6183486;23;20474;-46
2022/11/29 04:49:36;;;;;;;89.60;35.83;;;4.30;25.50;;;;;;6183496;23;20398;-47
2022/11/29 04:52:16;;;;;;;80.33;34.13;;;4.30;16.50;;;;;;6183584;23;20366;-47
2022/11/29 04:54:55;;;;;;;83.43;35.43;;;4.30;5.50;;;;;;6183248;23;20373;-46
2022/11/29 04:57:38;;;;;;;74.80;33.83;;;4.20;1.00;;;;;;6176963;23;20367;-46
2022/11/29 05:00:09;;;;;;;74.93;35.70;;;4.20;8.90;;;;;;6184132;23;20396;-46
2022/11/29 05:02:55;;;;;;;81.47;34.10;;;4.20;23.10;;;;;;6183083;23;20833;-46
2022/11/29 05:05:30;;;;;;;77.07;31.67;;;4.20;30.40;;;;;;6183406;23;20953;-46
2022/11/29 05:08:18;;;;;;;73.70;34.03;;;4.20;20.50;;;;;;6183125;23;20391;-46
2022/11/29 05:10:57;;;;;;;77.30;34.43;;;4.30;11.50;;;;;;6183297;23;20359;-46
2022/11/29 05:13:30;;;;;;;77.57;35.13;;;4.30;12.70;;;;;;6180884;23;20390;-45
2022/11/29 05:16:18;;;;;;;76.23;32.00;;;4.20;15.70;;;;;;6183190;23;20842;-47
2022/11/29 05:18:57;;;;;;;75.73;34.73;;;4.20;24.10;;;;;;6183004;23;20821;-46
2022/11/29 05:21:44;;;;;;;74.47;32.13;;;4.20;33.10;;;;;;6182385;23;20378;-46
2022/11/29 05:24:37;;;;;;;70.40;32.27;;;4.30;29.80;;;;;;6182831;23;20378;-46
2022/11/29 05:27:36;;;;;;;71.40;31.90;;;4.20;25.90;;;;;;6183162;23;20371;-47
2022/11/29 05:30:06;;;;;;;78.97;33.57;;;4.30;24.00;;;;;;6182444;23;20994;-46
2022/11/29 05:32:59;;;;;;;78.20;35.40;;;4.20;20.10;;;;;;6182812;23;20369;-46
2022/11/29 05:35:58;;;;;;;81.00;35.40;;;4.20;22.20;;;;;;6183305;23;20840;-46
2022/11/29 05:38:32;;;;;;;77.37;34.43;;;4.20;28.60;;;;;;6182312;23;20469;-46
2022/11/29 05:41:31;;;;;;;79.33;35.17;;;4.20;38.10;;;;;;6182635;23;20853;-46
2022/11/29 05:44:09;;;;;;;87.47;37.00;;;4.10;48.30;;;;;;6182367;23;20802;-45
2022/11/29 05:46:54;;;;;;;74.90;33.87;;;4.20;69.60;;;;;;6182416;23;20448;-46
2022/11/29 05:50:09;;;;;;;73.97;33.73;;;4.20;73.00;;;;;;6183265;23;20375;-46
2022/11/29 05:53:14;;;;;;;79.17;35.67;;;4.20;61.80;;;;;;6183537;23;20760;-46
2022/11/29 05:55:57;;;;;;;74.60;33.60;;;4.20;50.50;;;;;;6182144;23;20724;-46
2022/11/29 05:58:44;;;;;;;75.20;34.10;;;4.20;62.40;;;;;;6183940;23;21030;-46
2022/11/29 06:01:21;;;;;;;72.47;34.87;;;4.20;66.50;;;;;;6183661;23;20821;-46
2022/11/29 06:03:58;;;;;;;79.97;33.47;;;4.10;54.80;;;;;;6183029;23;20371;-47
2022/11/29 06:06:44;;;;;;;89.77;36.70;;;4.10;63.70;;;;;;6183910;23;20945;-47
2022/11/29 06:09:32;;;;;;;87.03;38.10;;;4.10;74.40;;;;;;6183347;23;20395;-46
2022/11/29 06:12:12;;;;;;;80.97;35.77;;;4.10;66.90;;;;;;6181105;23;20385;-46
2022/11/29 06:15:23;;;;;;;85.93;36.83;;;4.10;79.80;;;;;;6176645;23;20382;-46
2022/11/29 06:18:27;;;;;;;83.80;36.60;;;4.10;99.90;;;;;;6182935;23;20370;-46
2022/11/29 06:21:15;;;;;;;80.73;35.13;;;4.20;99.90;;;;;;6183043;23;20366;-46
2022/11/29 06:24:13;;;;;;;74.50;34.37;;;4.20;90.70;;;;;;6183272;23;20371;-46
2022/11/29 06:27:16;;;;;;;78.53;34.27;;;4.20;57.30;;;;;;6184766;23;20389;-46
2022/11/29 06:30:15;;;;;;;78.67;36.90;;;4.20;28.50;;;;;;6165096;23;20390;-46
2022/11/29 06:33:11;;;;;;;80.30;36.50;;;4.20;22.60;;;;;;6185428;23;20367;-46
2022/11/29 06:35:50;;;;;;;77.77;34.53;;;4.10;40.30;;;;;;6185560;23;20377;-46
2022/11/29 06:38:28;;;;;;;77.07;33.90;;;4.20;62.00;;;;;;6185494;23;20841;-45
2022/11/29 06:40:56;;;;;;;75.03;34.63;;;4.20;65.20;;;;;;6179136;23;20459;-46
2022/11/29 06:43:22;;;;;;;83.87;37.93;;;4.20;46.60;;;;;;6185618;23;20382;-46
2022/11/29 06:45:55;;;;;;;81.57;36.07;;;4.20;42.10;;;;;;6184972;23;20427;-47
2022/11/29 06:48:25;;;;;;;81.40;36.07;;;4.20;38.00;;;;;;6183566;23;20213;-47
2022/11/29 06:51:05;;;;;;;76.73;36.60;;;4.20;22.70;;;;;;6185072;23;20371;-50
2022/11/29 06:53:47;;;;;;;77.83;35.00;;;4.20;5.10;;;;;;6185643;23;20373;-46
2022/11/29 06:56:28;;;;;;;77.63;35.43;;;4.10;1.00;;;;;;6185702;23;20461;-46
2022/11/29 06:58:53;;;;;;;89.17;36.10;;;4.10;1.00;;;;;;6184700;23;20754;-46
2022/11/29 07:01:35;;;;;;;78.77;38.33;;;4.20;5.20;;;;;;6184532;23;20418;-47
2022/11/29 07:04:22;;;;;;;81.80;37.00;;;4.10;5.30;;;;;;6184819;23;20144;-47
2022/11/29 07:06:48;;;;;;;89.30;37.57;;;4.10;5.60;;;;;;6184427;23;20379;-47
2022/11/29 07:09:17;;;;;;;84.43;37.50;;;4.10;15.90;;;;;;6178058;23;20381;-47
2022/11/29 07:11:45;;;;;;;93.60;35.53;;;4.10;35.20;;;;;;6184090;23;20266;-46
2022/11/29 07:14:11;;;;;;;89.37;37.10;;;4.20;43.70;;;;;;6181039;23;20386;-46
2022/11/29 07:17:00;;;;;;;77.87;36.23;;;4.20;33.30;;;;;;6180891;23;20382;-46
2022/11/29 07:19:39;;;;;;;74.57;34.70;;;4.20;26.10;;;;;;6179142;23;20398;-46
2022/11/29 07:22:35;;;;;;;88.03;36.93;;;4.20;22.70;;;;;;6183676;23;20367;-46
2022/11/29 07:25:37;;;;;;;82.57;35.57;;;4.20;24.10;;;;;;6181041;23;20414;-46
2022/11/29 07:28:43;;;;;;;88.50;37.27;;;4.20;9.70;;;;;;6180359;23;20398;-47
2022/11/29 07:31:19;;;;;;;79.70;35.03;;;4.20;1.00;;;;;;6184835;23;20960;-46
2022/11/29 07:33:56;;;;;;;83.53;37.40;;;4.20;1.00;;;;;;6183859;23;20371;-48
2022/11/29 07:36:27;;;;;;;83.50;38.37;;;4.20;7.80;;;;;;6179133;23;20371;-46
2022/11/29 07:39:06;;;;;;;84.03;35.50;;;4.20;10.80;;;;;;6179768;23;20439;-46
2022/11/29 07:41:45;;;;;;;75.90;35.07;;;4.30;14.50;;;;;;6179671;23;20478;-46
2022/11/29 07:44:26;;;;;;;79.67;35.87;;;4.30;1.00;;;;;;6180741;23;20501;-46
2022/11/29 07:46:51;;;;;;;79.90;35.70;;;4.30;1.00;;;;;;6180557;23;20389;-43
2022/11/29 07:49:17;;;;;;;79.10;37.13;;;4.30;1.00;;;;;;6180309;23;20367;-46
2022/11/29 07:51:42;;;;;;;78.20;36.40;;;4.30;1.00;;;;;;6173292;23;20148;-46
2022/11/29 07:54:12;;;;;;;76.43;37.37;;;4.40;1.00;;;;;;6184107;23;20489;-46
2022/11/29 07:56:38;;;;;;;75.23;34.50;;;4.40;1.00;;;;;;6184138;23;20455;-46
2022/11/29 07:59:03;;;;;;;96.83;37.80;;;4.30;1.00;;;;;;6184757;23;20446;-46
2022/11/29 08:01:30;;;;;;;76.13;35.00;;;4.40;1.00;;;;;;6184145;23;21031;-46
2022/11/29 08:03:55;;;;;;;77.47;35.43;;;4.40;1.00;;;;;;6184044;23;20367;-49
2022/11/29 08:06:25;;;;;;;77.10;36.73;;;4.40;1.00;;;;;;6183695;23;20171;-46
2022/11/29 08:08:50;;;;;;;79.33;36.70;;;4.40;1.00;;;;;;6184103;23;20170;-46
2022/11/29 08:11:16;;;;;;;84.40;38.20;;;4.30;1.00;;;;;;6183595;23;20374;-46
2022/11/29 08:13:42;;;;;;;86.23;39.13;;;4.40;1.00;;;;;;6183827;23;20566;-45
2022/11/29 08:16:07;;;;;;;77.37;36.67;;;4.40;1.00;;;;;;6183082;23;20554;-46
2022/11/29 08:18:35;;;;;;;73.30;35.07;;;4.40;1.00;;;;;;6183371;23;20163;-46
2022/11/29 08:21:06;;;;;;;84.70;38.60;;;4.40;1.00;;;;;;6183641;23;20159;-46
2022/11/29 08:23:31;;;;;;;74.30;35.10;;;4.50;1.00;;;;;;6183748;23;20706;-45
2022/11/29 08:26:01;;;;;;;79.37;36.07;;;4.50;1.00;;;;;;6183493;23;20418;-44
2022/11/29 08:28:27;;;;;;;78.00;36.67;;;4.50;1.00;;;;;;6183724;23;20235;-44
2022/11/29 08:31:04;;;;;;;79.00;38.43;;;4.50;1.00;;;;;;6184637;23;20413;-44
2022/11/29 08:33:29;;;;;;;82.07;35.97;;;4.50;1.00;;;;;;6183780;23;20362;-43
2022/11/29 08:35:55;;;;;;;73.90;35.80;;;4.50;1.00;;;;;;6183553;23;20409;-44
2022/11/29 08:38:21;;;;;;;73.67;35.80;;;4.50;1.00;;;;;;6183773;23;20452;-44
2022/11/29 08:40:47;;;;;;;75.40;35.13;;;4.60;1.00;;;;;;6183058;23;20443;-44
2022/11/29 08:43:13;;;;;;;75.50;35.73;;;4.50;1.00;;;;;;6183703;23;20435;-44
2022/11/29 08:45:38;;;;;;;77.83;36.27;;;4.50;1.00;;;;;;6183129;23;20182;-46
2022/11/29 08:48:04;;;;;;;80.93;37.20;;;4.50;1.00;;;;;;6183129;23;20158;-44
2022/11/29 08:50:30;;;;;;;76.83;36.57;;;4.50;1.00;;;;;;6184236;23;20525;-44
2022/11/29 08:55:41;;;;;;;77.77;36.10;;;4.60;1.00;;;;;;6183827;23;20222;-44
2022/11/29 08:58:10;;;;;;;80.87;36.27;;;4.60;1.00;;;;;;6181911;23;20410;-44
2022/11/29 09:00:37;;;;;;;78.90;38.20;;;4.60;1.00;;;;;;6182543;23;20797;-45
2022/11/29 09:05:49;;;;;;;69.13;35.20;;;4.70;1.00;;;;;;6182558;23;20421;-45
2022/11/29 09:08:14;;;;;;;79.57;37.17;;;4.60;1.00;;;;;;6183020;23;20379;-44
2022/11/29 09:10:41;;;;;;;75.13;36.30;;;4.60;1.00;;;;;;6183688;23;20375;-44
2022/11/29 09:13:08;;;;;;;72.07;34.03;;;4.60;1.00;;;;;;6182775;23;20506;-44
2022/11/29 09:15:35;;;;;;;68.03;34.37;;;4.60;1.00;;;;;;6182700;23;20668;-44
2022/11/29 09:18:01;;;;;;;75.60;35.10;;;4.60;1.00;;;;;;6183108;23;20382;-44
2022/11/29 09:20:27;;;;;;;78.27;35.27;;;4.70;1.00;;;;;;6182616;23;20373;-46
2022/11/29 09:22:52;;;;;;;71.90;35.73;;;4.70;1.00;;;;;;6183359;23;20198;-44
2022/11/29 09:25:18;;;;;;;75.53;37.37;;;4.70;1.00;;;;;;6183373;23;20175;-44
2022/11/29 09:27:43;;;;;;;79.60;36.30;;;4.70;1.00;;;;;;6182730;23;20163;-44
2022/11/29 09:30:09;;;;;;;73.30;36.87;;;4.70;1.00;;;;;;6183657;23;20578;-44
2022/11/29 09:32:35;;;;;;;70.43;35.00;;;4.80;1.00;;;;;;6183296;23;20202;-44
2022/11/29 09:35:01;;;;;;;70.97;35.73;;;4.80;1.00;;;;;;6181289;23;20386;-44
2022/11/29 09:37:26;;;;;;;77.47;37.40;;;4.80;1.00;;;;;;6182759;23;20250;-44
2022/11/29 09:39:52;;;;;;;67.33;34.03;;;4.70;1.00;;;;;;6175825;23;20671;-45
2022/11/29 09:42:35;;;;;;;70.53;34.80;;;4.80;1.00;;;;;;6182566;23;20568;-44
2022/11/29 09:45:08;;;;;;;75.23;34.73;;;4.80;1.00;;;;;;6182241;23;20509;-44
2022/11/29 09:47:52;;;;;;;76.10;36.17;;;4.80;1.00;;;;;;6182762;23;20414;-44
2022/11/29 09:50:32;;;;;;;69.90;35.30;;;4.80;1.00;;;;;;6183642;23;20849;-44
2022/11/29 09:53:24;;;;;;;69.83;35.80;;;4.90;1.00;;;;;;6183261;23;20366;-44
2022/11/29 09:56:08;;;;;;;75.20;35.40;;;4.90;1.00;;;;;;6183235;23;20359;-44
2022/11/29 09:58:43;;;;;;;76.30;35.90;;;4.90;1.00;;;;;;6183394;23;20382;-45
2022/11/29 10:01:16;;;;;;;81.17;37.47;;;4.90;1.00;;;;;;6185638;23;20373;-45
2022/11/29 10:03:46;;;;;;;79.00;38.10;;;4.90;1.00;;;;;;6184212;23;20374;-44
2022/11/29 10:06:30;;;;;;;73.27;34.93;;;4.90;1.00;;;;;;6185207;23;20432;-44
2022/11/29 10:09:01;;;;;;;72.67;35.50;;;4.90;1.00;;;;;;6185080;23;20363;-44
2022/11/29 10:11:37;;;;;;;78.97;36.10;;;4.80;1.00;;;;;;6183898;23;20460;-44
2022/11/29 10:14:16;;;;;;;87.57;37.53;;;4.80;1.00;;;;;;6183376;23;20373;-49
2022/11/29 10:16:48;;;;;;;76.07;35.40;;;4.80;1.00;;;;;;6183280;23;20474;-45
2022/11/29 10:19:16;;;;;;;72.80;35.30;;;4.80;1.00;;;;;;6183837;23;20398;-44
2022/11/29 10:21:49;;;;;;;75.80;36.30;;;4.90;1.00;;;;;;6183209;23;20378;-44
2022/11/29 10:24:19;;;;;;;74.60;37.87;;;4.90;1.00;;;;;;6181678;23;20841;-44
2022/11/29 10:26:45;;;;;;;69.53;35.17;;;4.90;1.00;;;;;;6183943;23;20524;-44
2022/11/29 10:29:15;;;;;;;72.73;36.17;;;4.90;1.00;;;;;;6184250;23;20386;-44
2022/11/29 10:31:45;;;;;;;78.60;37.03;;;4.80;1.00;;;;;;6184708;23;20879;-44
2022/11/29 10:34:20;;;;;;;74.07;37.83;;;4.80;1.00;;;;;;6184936;23;20428;-44
2022/11/29 10:37:01;;;;;;;77.53;37.87;;;4.80;1.00;;;;;;6182109;23;20405;-45
2022/11/29 10:39:41;;;;;;;72.67;36.30;;;4.80;1.00;;;;;;6184548;23;20445;-45
2022/11/29 10:45:23;;;;;;;75.90;38.43;;;4.80;1.00;;;;;;6184493;23;20510;-45
2022/11/29 10:47:49;;;;;;;78.10;37.10;;;4.80;1.00;;;;;;6184411;23;20401;-44
2022/11/29 10:50:27;;;;;;;80.63;37.97;;;4.80;1.00;;;;;;6183428;23;20817;-44
2022/11/29 10:52:58;;;;;;;79.47;38.53;;;4.80;1.00;;;;;;6182478;23;20382;-44
2022/11/29 10:55:26;;;;;;;84.90;38.13;;;4.80;1.00;;;;;;6183875;23;20879;-48
2022/11/29 10:58:25;;;;;;;78.93;39.87;;;4.80;1.00;;;;;;6184374;23;20382;-44
2022/11/29 11:01:06;;;;;;;80.30;38.80;;;4.90;1.00;;;;;;6183433;23;20371;-44
2022/11/29 11:03:49;;;;;;;76.77;37.73;;;4.90;1.00;;;;;;6185233;23;20370;-44
2022/11/29 11:06:19;;;;;;;85.13;41.50;;;4.80;1.00;;;;;;6183964;23;20417;-44
2022/11/29 11:08:51;;;;;;;84.30;39.93;;;4.80;1.00;;;;;;6184271;23;20454;-44
2022/11/29 11:11:28;;;;;;;76.97;38.70;;;4.80;1.00;;;;;;6184558;23;20358;-44
2022/11/29 11:14:04;;;;;;;81.63;40.27;;;4.90;1.00;;;;;;6182186;23;20386;-45
2022/11/29 11:16:30;;;;;;;78.30;37.20;;;4.90;1.00;;;;;;6184709;23;20960;-44
2022/11/29 11:18:56;;;;;;;82.30;38.37;;;4.90;1.00;;;;;;6184150;23;20386;-45
2022/11/29 11:21:24;;;;;;;86.33;40.53;;;5.00;1.00;;;;;;6184760;23;20159;-44
2022/11/29 11:23:56;;;;;;;76.63;38.13;;;5.00;1.00;;;;;;6184516;23;20143;-44
2022/11/29 11:26:23;;;;;;;83.97;39.53;;;5.00;1.00;;;;;;6184414;23;20461;-48
2022/11/29 11:28:54;;;;;;;87.43;39.00;;;5.10;1.00;;;;;;6177504;23;20386;-44
2022/11/29 11:31:28;;;;;;;74.90;38.30;;;5.00;1.00;;;;;;6184355;23;20370;-46
2022/11/29 11:33:54;;;;;;;80.70;38.83;;;5.00;1.00;;;;;;6183737;23;20678;-45
2022/11/29 11:36:23;;;;;;;77.17;37.03;;;5.00;1.00;;;;;;6182939;23;20418;-44
2022/11/29 11:38:54;;;;;;;78.60;38.43;;;4.90;1.00;;;;;;6184137;23;20469;-44
2022/11/29 11:42:35;;;;;;;70.33;36.83;;;5.00;1.00;;;;;;6183897;23;20477;-44
2022/11/29 11:44:30;;;;;;;83.03;39.67;;;5.00;1.00;;;;;;6183696;23;20363;-44
2022/11/29 11:46:58;;;;;;;81.53;39.37;;;5.00;1.00;;;;;;6183738;23;20440;-45
2022/11/29 11:49:45;;;;;;;84.27;38.83;;;5.00;1.00;;;;;;6181963;23;20390;-45
2022/11/29 11:52:24;;;;;;;81.00;38.60;;;5.10;1.00;;;;;;6183816;23;20391;-45
2022/11/29 11:54:53;;;;;;;80.83;37.37;;;5.20;1.00;;;;;;6183805;23;20367;-45
2022/11/29 11:57:21;;;;;;;77.00;37.73;;;5.20;1.00;;;;;;6183529;23;20414;-44
2022/11/29 11:59:48;;;;;;;73.97;37.60;;;5.30;1.00;;;;;;6183571;23;20370;-45
2022/11/29 12:02:34;;;;;;;78.50;37.70;;;5.20;1.00;;;;;;6183678;23;20394;-45
2022/11/29 12:05:03;;;;;;;79.87;37.57;;;5.30;1.00;;;;;;6183323;23;20938;-44
2022/11/29 12:07:41;;;;;;;78.00;36.70;;;5.30;1.00;;;;;;6183872;23;20366;-46
2022/11/29 12:10:21;;;;;;;78.80;38.67;;;5.20;1.00;;;;;;6181742;23;20453;-45
2022/11/29 12:12:49;;;;;;;75.47;38.13;;;5.20;1.00;;;;;;6183858;23;20466;-45
2022/11/29 12:15:34;;;;;;;74.13;36.10;;;5.20;1.00;;;;;;6183745;23;20809;-45
2022/11/29 12:18:09;;;;;;;80.70;38.20;;;5.20;1.00;;;;;;6183774;23;20367;-44
2022/11/29 12:20:52;;;;;;;75.63;37.00;;;5.30;1.00;;;;;;6183866;23;20374;-45
2022/11/29 12:23:44;;;;;;;81.20;38.20;;;5.30;1.00;;;;;;6183351;23;20929;-44
2022/11/29 12:26:25;;;;;;;78.10;38.40;;;5.20;1.00;;;;;;6183463;23;20411;-45
2022/11/29 12:28:51;;;;;;;84.20;39.10;;;5.30;1.00;;;;;;6183426;23;20404;-45
2022/11/29 12:31:44;;;;;;;79.40;39.20;;;5.30;1.00;;;;;;6183009;23;20385;-45
2022/11/29 12:34:22;;;;;;;82.20;39.20;;;5.30;1.00;;;;;;6183231;23;20899;-45
2022/11/29 12:37:01;;;;;;;79.27;37.63;;;5.30;1.00;;;;;;6183187;23;20382;-45
2022/11/29 12:39:47;;;;;;;72.03;36.30;;;5.30;1.00;;;;;;6183180;23;20448;-45
2022/11/29 12:42:40;;;;;;;80.57;38.20;;;5.20;1.00;;;;;;6183225;23;20367;-44
2022/11/29 12:45:27;;;;;;;83.77;39.10;;;5.20;1.00;;;;;;6183309;23;20398;-45
2022/11/29 12:48:19;;;;;;;74.83;38.33;;;5.20;1.00;;;;;;6183398;23;20367;-45
2022/11/29 12:51:06;;;;;;;85.87;39.10;;;5.20;1.00;;;;;;6142633;23;20393;-45
2022/11/29 12:53:52;;;;;;;75.50;39.07;;;5.20;1.00;;;;;;6182740;23;20389;-44
2022/11/29 12:56:35;;;;;;;81.10;38.10;;;5.20;1.00;;;;;;6175689;23;20367;-45
2022/11/29 12:59:19;;;;;;;84.70;39.53;;;5.20;1.00;;;;;;6182770;23;20375;-45
2022/11/29 13:02:03;;;;;;;78.80;38.20;;;5.20;1.00;;;;;;6182485;23;20698;-45
2022/11/29 13:05:13;;;;;;;78.30;38.13;;;5.30;1.00;;;;;;6180070;23;20370;-46
2022/11/29 13:08:20;;;;;;;77.53;38.17;;;5.30;1.00;;;;;;6182115;23;20367;-45
2022/11/29 13:11:02;;;;;;;81.57;38.07;;;5.20;1.00;;;;;;6132398;23;20432;-45
2022/11/29 13:13:36;;;;;;;86.93;38.60;;;5.20;1.00;;;;;;6180645;23;20374;-46
2022/11/29 13:16:19;;;;;;;90.27;39.87;;;5.20;1.00;;;;;;6183060;23;20352;-45
2022/11/29 13:19:07;;;;;;;88.50;40.37;;;5.20;1.00;;;;;;6179728;23;20368;-46
2022/11/29 13:21:59;;;;;;;86.93;39.90;;;5.20;1.00;;;;;;6182625;23;20355;-45
2022/11/29 13:24:31;;;;;;;89.80;39.67;;;5.20;1.00;;;;;;6178625;23;20482;-45
2022/11/29 13:26:57;;;;;;;99.87;43.90;;;5.20;1.00;;;;;;6182712;23;20418;-45
2022/11/29 13:29:24;;;;;;;145.87;57.30;;;5.20;1.00;;;;;;6179209;23;20370;-44
2022/11/29 13:31:50;;;;;;;108.87;49.90;;;5.10;1.00;;;;;;6180417;23;20432;-45
2022/11/29 13:34:40;;;;;;;104.00;45.03;;;5.10;1.00;;;;;;6179001;23;20731;-45
2022/11/29 13:37:27;;;;;;;90.40;41.60;;;5.10;1.00;;;;;;6181229;23;20367;-45
2022/11/29 13:40:13;;;;;;;88.93;41.87;;;5.10;1.00;;;;;;6181471;23;20909;-45